• Join FlightAware (Why Join?)
  • Login
  • US Flag 
02:05AM EDT


 

Airport Tracker/Info


-or-


 

Live Flight TrackerFlight Track Log ✈ FLG3626 ✈ 17-Sep-2013 ✈ KMBS - KDTW

Flight Track Log - Related Links

Times and Time Zones

All times are in EDT time to prevent confusion due to time zone crossing. See the FLG3626 flight status page for this flight to view local times or setup timezone preferences in your user account.

Time Position Orientation Groundspeed Altitude Reporting Facility
EDT Latitude Longitude Course Direction KTS MPH feet Rate Location/Type
06:03AM 43.5456 -84.0447 156° South 152 175 2,300  Level Cleveland Center
06:04AM 43.5025 -84.0189 156° South 181 208 3,900 1,620 Climbing Cleveland Center
06:05AM 43.4364 -83.9889 162° South 242 278 5,600 240 Climbing Cleveland Center
06:07AM 43.3155 -83.9660 160° South  Level FlightAware Approximate
06:12AM 42.9525 -83.7847 154° Southeast 265 305 6,000  Level Cleveland Center
06:12AM 42.9261 -83.7750 165° South 264 304 6,000  Level Cleveland Center
06:13AM 42.8508 -83.7467 165° South 264 304 6,000  Level Cleveland Center
06:14AM 42.8362 -83.7347 161° South  Level FlightAware Approximate
06:14AM 42.7786 -83.7331 172° South 262 302 6,000  Level Cleveland Center
06:15AM 42.7709 -83.6917 154° Southeast  Level FlightAware Approximate
06:15AM 42.7064 -83.7169 171° South 261 300 6,000  Level Cleveland Center
06:16AM 42.7057 -83.6482 154° Southeast  Level FlightAware Approximate
06:16AM 42.6344 -83.7006 170° South 260 299 6,000  Level Cleveland Center
06:17AM 42.6388 -83.6147 154° Southeast  Level FlightAware Approximate
06:17AM 42.5644 -83.6844 170° South 258 297 6,000  Level Cleveland Center
06:18AM 42.4875 -83.6789 177° South 262 302 5,000 -540 Descending Cleveland Center
06:19AM 42.4139 -83.6794 180° South 263 303 5,000  Level Cleveland Center
06:20AM 42.3406 -83.6800 180° South 265 305 5,000  Level Cleveland Center
06:21AM 42.2672 -83.6806 180° South 266 306 5,000 -540 Level Cleveland Center
06:22AM 42.2000 -83.6819 181° South 244 281 4,000 -540 Descending Cleveland Center
06:23AM 42.1378 -83.6728 174° South 207 238 4,000  Level Cleveland Center
06:24AM 42.1069 -83.6122 124° Southeast 185 213 4,000  Level Cleveland Center
06:25AM 42.0825 -83.5522 119° Southeast 181 208 4,000 -360 Level Cleveland Center
06:26AM 42.0792 -83.4872 94° East 186 214 3,300 -780 Descending Cleveland Center
06:27AM 42.1183 -83.4447 39° Northeast 175 201 2,500 -840 Descending Cleveland Center
06:28AM 42.1581 -83.4167 28° Northeast 140 161 1,700 -840 Descending Cleveland Center
06:29AM 42.1914 -83.3933 27° Northeast 131 151 900 -840 Descending Cleveland Center